Asaba International Airport

DNAS · Delta, 尼日利亚

METAR DNAS · Asaba International Airport

罗盘
风向 的 Asaba International Airport 11/29
风: 0 kt, 0 beaufort


改变
0 1.000 2.000 3.000 4.000 5.000
FEW 1.000 ft
METAR DNEN 070300Z 00000KT 7000 FEW010 25/23 Q1010 NOSIG

METAR Asaba International Airport - DNAS/ABB

Asaba International Airport是,尼日利亚中的中型机场。 该机场有一条跑道: 11/29. 该领域的国际民航组织标志是DNAS 它的国际航空运输协会代码是ABB.

这份报告是针对2022年12月7日 04:00, 当地时间在Akanu Ibiam International Airport进行的。

机场观察

可变方向的风很小或没有风。

可见度为7 km。

有几云在1.000 ft的高度。 没有观察到天花板。

温度和风寒是25 °C。 露点为23 °C,相对湿度为89%。 海平面上的气压为1010 hPa (QNH)。

白天

今天,太阳从06:31升起,在18:18降落。 这适用于Asaba International Airport,世界夏令时可能有所不同。 当地时间与世界标准时间之间的时差为+1 小时。 当前,没有夏令时有效。

公司介绍

我们没有关于这个机场的公司信息。

体会

到Vliegles.nl去找飞行课程,跳伞和其他飞行体验。 浏览页面,了解Asaba International Airport附近所有可用的活动。 你也可以使用搜索功能来寻找你所在地附近的特定飞行课程、跳伞或其他飞行体验。

跑道

Id 标题 侧风 逆风 侧风 %
11/29 110°-290°

逆风成分最大的方向会被突出显示,并用于横风计算。 这并不一定意味着这个方向在使用。

乌云

1.000 ft FEW 几云

温度 & 天气

温度 25 °C
露点 23 °C
相对湿度 89%
Kp-index 1 (0-9)

白天

日出
06:28 (1:34)
中午
12:21
日落
18:14

小工具

你想在你的网站上有一个关于Asaba International Airport的当前航空天气(METAR)的小部件吗?

显示HTML代码

我们和第三方通过cookies跟踪您在我们网站上的互联网行为。如果你继续,我们认为你同意我们的饼干政策